Decoded Metar for KMOB (MOBILE in AL, USA) (IATA:MOB) | Meteo·Mobile Aviation Weather
aviador You're here:

KMOB Decoded Metar

MOBILE in AL, USA
Report Time2018-09-20 07:56:00
UTC Time2018-09-20 08:49:28
Flight Rules vfr VFR
WindCalm
Visibility9999 m
Phenomena:N/A
Clouds:N/A
CeilingNone
Temp24°C (ISA +9)
Dew Point24°C (100% RH)
QNH1015 hPa
Density Alt1,624 ft
Elevation207 ft
Report Wrong Elevation
Raw Report
KMOB 200756Z AUTO 00000KT 10SM CLR 24/24 A2998 RMK AO2 SLP148
T02440239=

Extra information for KMOB:More info

Metar Taf Metar & Taf Last 4 Metars F.Rules Stats Wind Profile Meteogram Temp Stats Airport Information Weather charts Add Link Nearby VenuesMetar ALERT Operation Metar Decoded Social comments

AIRNAV info for KMOB